Terminal Aerodrome Forecast
Issued by NWS

Home | Current Version | Previous Version | Text Only | Print | Product List | Glossary On
Versions: 1 2 3 4 5 6 7 8 9 10 11 12 13 14 15
892
FTUS46 KSGX 262340
TAFCRQ
TAF
KCRQ 262340Z 2700/2724 18008KT P6SM VCSH SCT012 BKN020 BKN035
     FM270800 15005KT P6SM VCSH SCT008 BKN015 OVC035
     FM271600 14005KT P6SM VCSH SCT010 BKN020 BKN035
     FM272000 24007KT P6SM -SHRA SCT007 BKN013 OVC025=

USA.gov is the U.S. government's official web portal to all federal, state and local government web resources and services.